Indian Springs, Indiana
Current Conditions -  °F | °C
As of 7:15 PM on Tuesday 21 Oct 2014 (Local Time) from KDCY Reporting Station
Overcast Overcast  
Wind Chill: 48°   Ceiling: 5000
Heat Index: 50°   Visibility: 10mi
Dew Point: 42°   Wind: 5mph
Humidity: 76%   Direction: 360°N
Pressure: 30.14"   Gusts: NA
Location:  38.6262°N, 86.7615°W
Report Text: KDCY 220015Z AUTO 36004KT 10SM OVC050 10/06 A3014 RMK AO2 T00990058
Loading
Personal Weather Stations






























Interactive Weather Map
Tropical Storm Tracking
New forecast layout! Learn more

10-Day Weather Forecast

Advertisements
Track Severe Weather on mobile